KPAM/PAM METAR and TAF weather

Enter ICAO airport designator
Station Type Date Time Source
KPAM METAR 2021/10/24 20:56 UTC NOAA

KPAM 242056Z AUTO 08004KT 10SM OVC060 25/21 A2998 RMK AO2 DZE08DZB08E08 SLP155 P0000 60000 T02490214 55012 $


Station Type Date Time Source
KPAM Decoded METAR 2021/10/24 20:56 UTC NOAA

Tyndall Air Force Base, FL, United States (KPAM) 30-04N 085-35W 13M
Oct 24, 2021 - 04:56 PM EDT / 2021.10.24 2056 UTC
Wind: from the E (080 degrees) at 5 MPH (4 KT):0
Visibility: 10 mile(s):0
Sky conditions: overcast
Precipitation last hour: A trace
Temperature: 76.8 F (24.9 C)
Dew Point: 70.5 F (21.4 C)
Relative Humidity: 80%
Pressure (altimeter): 29.98 in. Hg (1015 hPa)
Pressure tendency: 0.04 inches (1.2 hPa) lower than three hours ago
ob: KPAM 242056Z AUTO 08004KT 10SM OVC060 25/21 A2998 RMK AO2 DZE08DZB08E08 SLP155 P0000 60000 T02490214 55012
cycle: 21

Station Type Date Time Source
KPAM TAF 2021/10/22 19:49 UTC NOAA

TAF
AMD KPAM 221835Z 2219/2401 23009KT 9999 SCT030 QNH2999INS WND 32006KT AFT 2304
BECMG 2307/2308 02006KT 6000 BR SCT020 QNH3004INS
BECMG 2313/2314 06006KT 9999 NSW FEW030 QNH3006INS TX28/2219Z TN18/2308Z LAST NO
AMDS AFT 2219 NEXT 2511

Example: see airport list